Time;durP1;ratioP1;P1;durP2;ratioP2;P2;SDS_P1;SDS_P2;PMS_P1;PMS_P2;Temp;Humidity;BMP_temperature;BMP_pressure;BME280_temperature;BME280_humidity;BME280_pressure;Samples;Min_cycle;Max_cycle;Signal;HPM_P1;HPM_P2
2024/01/28 00:02:23;;;;;;;17.63;6.10;;;4.00;99.90;;;;;;5098669;28;20450;-56
2024/01/28 00:04:49;;;;;;;14.15;5.72;;;4.10;99.90;;;;;;5092619;28;20048;-56
2024/01/28 00:07:14;;;;;;;14.00;5.60;;;4.10;99.90;;;;;;5100487;28;20016;-54
2024/01/28 00:09:42;;;;;;;14.60;4.65;;;4.20;99.90;;;;;;5096957;28;20027;-54
2024/01/28 00:12:07;;;;;;;13.50;5.00;;;4.20;99.90;;;;;;5091696;28;20484;-56
2024/01/28 00:14:33;;;;;;;9.80;4.45;;;4.20;99.90;;;;;;5100929;28;20081;-54
2024/01/28 00:16:59;;;;;;;12.27;4.88;;;4.20;99.90;;;;;;5111968;28;20080;-54
2024/01/28 00:19:24;;;;;;;14.82;4.85;;;4.10;99.90;;;;;;5110866;28;20044;-54
2024/01/28 00:21:50;;;;;;;11.85;5.22;;;4.00;99.90;;;;;;5112684;28;20031;-52
2024/01/28 00:24:18;;;;;;;11.10;4.03;;;4.00;99.90;;;;;;5111530;28;20388;-54
2024/01/28 00:26:43;;;;;;;8.57;4.93;;;4.00;99.90;;;;;;5096383;28;20102;-53
2024/01/28 00:29:09;;;;;;;9.57;3.95;;;4.10;99.90;;;;;;5097449;28;20020;-55
2024/01/28 00:31:36;;;;;;;11.07;3.83;;;4.20;99.90;;;;;;5116508;28;20028;-51
2024/01/28 00:34:01;;;;;;;14.95;6.32;;;4.20;99.90;;;;;;5115902;28;20039;-39
2024/01/28 00:36:27;;;;;;;23.23;5.72;;;4.20;99.90;;;;;;5102023;28;20032;-40
2024/01/28 00:38:53;;;;;;;10.27;4.82;;;4.20;99.90;;;;;;5095912;28;20077;-39
2024/01/28 00:41:26;;;;;;;17.60;6.18;;;4.10;99.90;;;;;;5095837;28;20511;-39
2024/01/28 00:43:52;;;;;;;14.27;5.28;;;4.00;99.90;;;;;;5095991;28;20051;-40
2024/01/28 00:46:18;;;;;;;16.92;4.82;;;4.00;99.90;;;;;;5115646;28;20395;-71
2024/01/28 00:48:44;;;;;;;9.45;4.82;;;4.00;99.90;;;;;;5116192;28;20094;-40
2024/01/28 00:51:09;;;;;;;13.23;5.53;;;3.90;99.90;;;;;;5104643;28;20107;-40
2024/01/28 00:53:35;;;;;;;14.10;5.63;;;3.80;99.90;;;;;;5095919;28;20112;-40
2024/01/28 00:56:00;;;;;;;19.50;5.95;;;3.90;99.90;;;;;;5097834;28;20035;-39
2024/01/28 00:58:29;;;;;;;18.60;4.68;;;3.90;99.90;;;;;;5095542;28;20031;-55
2024/01/28 01:00:54;;;;;;;;;;;3.90;99.90;;;;;;5102475;28;20024;-55
2024/01/28 01:03:20;;;;;;;10.65;4.43;;;3.80;99.90;;;;;;5095372;28;19927;-55
2024/01/28 01:05:46;;;;;;;10.18;4.55;;;3.80;99.90;;;;;;5093964;28;20361;-54
2024/01/28 01:08:12;;;;;;;13.85;4.90;;;3.70;99.90;;;;;;5103483;28;20049;-55
2024/01/28 01:10:37;;;;;;;15.95;5.40;;;3.70;99.90;;;;;;5100073;28;20040;-56
2024/01/28 01:13:03;;;;;;;12.63;4.75;;;3.60;99.90;;;;;;5108425;28;20031;-55
2024/01/28 01:15:29;;;;;;;20.10;5.03;;;3.70;99.90;;;;;;5104887;28;20028;-52
2024/01/28 01:17:56;;;;;;;19.15;5.20;;;3.60;99.90;;;;;;5094812;28;20097;-55
2024/01/28 01:20:22;;;;;;;17.23;4.70;;;3.70;99.90;;;;;;5094983;28;20028;-55
2024/01/28 01:22:48;;;;;;;14.98;5.07;;;3.80;99.90;;;;;;5094892;28;20368;-53
2024/01/28 01:25:14;;;;;;;12.13;4.28;;;3.80;99.90;;;;;;5110133;28;20024;-55
2024/01/28 01:27:40;;;;;;;18.45;6.32;;;3.80;99.90;;;;;;5106576;28;20032;-54
2024/01/28 01:30:09;;;;;;;9.65;4.32;;;3.70;99.90;;;;;;5112212;28;20463;-55
2024/01/28 01:32:40;;;;;;;12.23;4.45;;;3.70;99.90;;;;;;5104206;28;20027;-54
2024/01/28 01:35:09;;;;;;;15.00;5.25;;;3.60;99.90;;;;;;5101014;28;20086;-56
2024/01/28 01:37:34;;;;;;;20.63;5.57;;;3.60;99.90;;;;;;5113829;28;20024;-55
2024/01/28 01:40:00;;;;;;;17.00;4.78;;;3.50;99.90;;;;;;5114500;28;20034;-55
2024/01/28 01:42:26;;;;;;;22.73;5.78;;;3.50;99.90;;;;;;5109427;28;20020;-55
2024/01/28 01:44:52;;;;;;;16.92;6.72;;;3.50;99.90;;;;;;5094474;28;20020;-59
2024/01/28 01:47:18;;;;;;;16.45;5.57;;;3.50;99.90;;;;;;5094577;28;20027;-57
2024/01/28 01:49:44;;;;;;;21.38;6.22;;;3.50;99.90;;;;;;5094488;28;20062;-56
2024/01/28 01:52:11;;;;;;;18.30;5.65;;;3.60;99.90;;;;;;5102343;28;20050;-56
2024/01/28 01:54:37;;;;;;;17.30;4.60;;;3.60;99.90;;;;;;5113145;28;20555;-55
2024/01/28 01:57:03;;;;;;;11.85;4.90;;;3.60;99.90;;;;;;5114609;28;20023;-56
2024/01/28 01:59:30;;;;;;;15.48;5.22;;;3.60;99.90;;;;;;5098960;28;20045;-55
2024/01/28 02:01:59;;;;;;;14.20;5.63;;;3.60;99.90;;;;;;5094455;28;20035;-55
2024/01/28 02:04:25;;;;;;;16.02;5.22;;;3.60;99.90;;;;;;5093818;28;20024;-55
2024/01/28 02:06:50;;;;;;;15.40;4.93;;;3.60;99.90;;;;;;5093450;28;20008;-55
2024/01/28 02:09:16;;;;;;;15.82;4.82;;;3.60;99.90;;;;;;5094056;28;20546;-55
2024/01/28 02:11:43;;;;;;;18.73;5.40;;;3.50;99.90;;;;;;5107939;28;20028;-60
2024/01/28 02:14:08;;;;;;;13.82;4.78;;;3.40;99.90;;;;;;5101801;28;20055;-55
2024/01/28 02:16:34;;;;;;;10.25;4.65;;;3.40;99.90;;;;;;5102965;28;20074;-55
2024/01/28 02:19:00;;;;;;;10.02;4.05;;;3.40;99.90;;;;;;5114232;28;20040;-55
2024/01/28 02:21:26;;;;;;;20.70;5.50;;;3.30;99.90;;;;;;5114326;27;20028;-54
2024/01/28 02:23:51;;;;;;;17.95;4.60;;;3.30;99.90;;;;;;5112541;28;20104;-56
2024/01/28 02:26:17;;;;;;;21.02;4.93;;;3.30;99.90;;;;;;5094057;28;20058;-56
2024/01/28 02:28:43;;;;;;;14.07;5.13;;;3.20;99.90;;;;;;5097842;28;20023;-56
2024/01/28 02:31:08;;;;;;;9.90;4.32;;;3.10;99.90;;;;;;5114117;28;20032;-57
2024/01/28 02:33:34;;;;;;;11.15;4.75;;;3.10;99.90;;;;;;5107665;28;20424;-57
2024/01/28 02:36:00;;;;;;;13.63;4.95;;;3.10;99.90;;;;;;5093704;28;20029;-58
2024/01/28 02:38:25;;;;;;;11.50;4.75;;;3.20;99.90;;;;;;5093434;28;20020;-55
2024/01/28 02:40:52;;;;;;;14.75;4.72;;;3.20;99.90;;;;;;5093728;28;20031;-58
2024/01/28 02:43:19;;;;;;;12.43;4.65;;;3.20;99.90;;;;;;5093472;28;20103;-62
2024/01/28 02:45:47;;;;;;;16.88;5.18;;;3.10;99.90;;;;;;5093546;28;20476;-56
2024/01/28 02:48:13;;;;;;;12.55;4.38;;;3.00;99.90;;;;;;5093385;28;20031;-56
2024/01/28 02:50:38;;;;;;;12.05;4.55;;;2.90;99.90;;;;;;5093843;28;20016;-56
2024/01/28 02:53:04;;;;;;;14.65;4.88;;;2.80;99.90;;;;;;5093864;28;20052;-54
2024/01/28 02:55:30;;;;;;;14.88;4.78;;;2.80;99.90;;;;;;5093534;28;20028;-56
2024/01/28 02:57:56;;;;;;;12.73;4.38;;;2.80;99.90;;;;;;5093122;28;20388;-54
2024/01/28 03:00:21;;;;;;;11.45;4.70;;;2.90;99.90;;;;;;5093169;28;20028;-54
2024/01/28 03:02:47;;;;;;;19.05;4.72;;;2.80;99.90;;;;;;5093133;28;20071;-56
2024/01/28 03:05:13;;;;;;;9.77;4.50;;;2.80;99.90;;;;;;5092990;28;20400;-56
2024/01/28 03:07:39;;;;;;;11.90;4.00;;;2.80;99.90;;;;;;5093774;28;20388;-55
2024/01/28 03:10:05;;;;;;;8.98;3.97;;;2.80;99.90;;;;;;5093181;28;20024;-56
2024/01/28 03:12:31;;;;;;;16.42;5.15;;;2.70;99.90;;;;;;5093902;28;20094;-56
2024/01/28 03:14:56;;;;;;;13.40;4.15;;;2.80;99.90;;;;;;5092400;28;20039;-56
2024/01/28 03:17:22;;;;;;;15.55;5.10;;;2.80;99.90;;;;;;5092818;28;20051;-56
2024/01/28 03:19:47;;;;;;;9.77;4.50;;;2.80;99.90;;;;;;5100363;28;20028;-41
2024/01/28 03:22:13;;;;;;;9.63;4.38;;;2.80;99.90;;;;;;5092884;28;20030;-61
2024/01/28 03:24:40;;;;;;;8.45;4.13;;;2.80;99.90;;;;;;5102824;28;20024;-43
2024/01/28 03:27:06;;;;;;;17.08;5.03;;;2.70;99.90;;;;;;5113330;28;20012;-40
2024/01/28 03:29:32;;;;;;;13.95;4.85;;;2.60;99.90;;;;;;5100834;28;20111;-44
2024/01/28 03:31:57;;;;;;;11.10;5.55;;;2.50;99.90;;;;;;5092977;28;20028;-42
2024/01/28 03:34:23;;;;;;;16.20;6.03;;;2.60;99.90;;;;;;5092849;28;20422;-41
2024/01/28 03:36:49;;;;;;;11.98;4.60;;;2.60;99.90;;;;;;5109947;28;20472;-40
2024/01/28 03:39:14;;;;;;;13.20;5.45;;;2.70;99.90;;;;;;5113161;28;20019;-47
2024/01/28 03:41:40;;;;;;;6.65;4.60;;;2.70;99.90;;;;;;5112217;28;20023;-43
2024/01/28 03:44:06;;;;;;;15.57;5.05;;;2.70;99.90;;;;;;5106511;28;20021;-40
2024/01/28 03:46:33;;;;;;;14.93;4.90;;;2.80;99.90;;;;;;5092749;28;20145;-46
2024/01/28 03:49:00;;;;;;;21.45;5.07;;;2.70;99.90;;;;;;5091429;28;20040;-45
2024/01/28 03:51:26;;;;;;;17.40;6.18;;;2.70;99.90;;;;;;5104210;28;20023;-41
2024/01/28 03:53:51;;;;;;;12.40;5.03;;;2.70;99.90;;;;;;5111546;28;20026;-41
2024/01/28 03:56:17;;;;;;;10.55;5.22;;;2.70;99.90;;;;;;5112957;28;20454;-42
2024/01/28 03:58:43;;;;;;;17.10;4.88;;;2.70;99.90;;;;;;5110472;28;20028;-40
2024/01/28 04:01:08;;;;;;;14.65;5.93;;;2.70;99.90;;;;;;5091212;28;20020;-41
2024/01/28 04:03:35;;;;;;;12.73;4.78;;;2.60;99.90;;;;;;5094887;28;20078;-55
2024/01/28 04:06:01;;;;;;;17.63;5.15;;;2.60;99.90;;;;;;5115757;28;20012;-41
2024/01/28 04:08:27;;;;;;;17.17;5.65;;;2.60;99.90;;;;;;5117118;28;20475;-41
2024/01/28 04:10:52;;;;;;;14.45;4.75;;;2.60;99.90;;;;;;5101025;28;20019;-41
2024/01/28 04:13:18;;;;;;;13.05;4.18;;;2.60;99.90;;;;;;5100759;28;20036;-43
2024/01/28 04:15:44;;;;;;;17.70;4.55;;;2.60;99.90;;;;;;5095438;28;20082;-42
2024/01/28 04:18:09;;;;;;;12.00;5.40;;;2.60;99.90;;;;;;5096249;28;20044;-43
2024/01/28 04:20:35;;;;;;;9.02;4.32;;;2.60;99.90;;;;;;5114643;28;20027;-56
2024/01/28 04:23:00;;;;;;;16.67;4.50;;;2.60;99.90;;;;;;5116599;28;20429;-56
2024/01/28 04:25:26;;;;;;;6.38;3.88;;;2.60;99.90;;;;;;5116555;28;20023;-56
2024/01/28 04:27:51;;;;;;;10.30;3.85;;;2.50;99.90;;;;;;5115260;28;20496;-56
2024/01/28 04:30:17;;;;;;;15.68;4.18;;;2.50;99.90;;;;;;5094858;28;20024;-56
2024/01/28 04:32:44;;;;;;;10.15;4.32;;;2.50;99.90;;;;;;5096677;28;20388;-46
2024/01/28 04:35:13;;;;;;;9.05;4.35;;;2.50;99.90;;;;;;5095936;28;20028;-43
2024/01/28 04:37:39;;;;;;;15.18;4.53;;;2.50;99.90;;;;;;5095992;28;20480;-42
2024/01/28 04:40:06;;;;;;;9.25;4.57;;;2.60;99.90;;;;;;5096244;28;20073;-52
2024/01/28 04:42:33;;;;;;;9.65;3.90;;;2.60;99.90;;;;;;5096181;28;20468;-40
2024/01/28 04:44:58;;;;;;;11.50;4.88;;;2.60;99.90;;;;;;5112854;28;20433;-56
2024/01/28 04:47:24;;;;;;;9.05;4.00;;;2.50;99.90;;;;;;5116492;28;20012;-57
2024/01/28 04:49:50;;;;;;;11.63;3.65;;;2.50;99.90;;;;;;5113475;28;20020;-63
2024/01/28 04:52:16;;;;;;;16.15;5.65;;;2.50;99.90;;;;;;5116073;28;20072;-41
2024/01/28 04:54:42;;;;;;;8.73;3.90;;;2.60;99.90;;;;;;5109980;28;20044;-56
2024/01/28 04:57:07;;;;;;;10.10;3.95;;;2.60;99.90;;;;;;5095573;28;20032;-55
2024/01/28 04:59:33;;;;;;;10.88;4.57;;;2.60;99.90;;;;;;5107094;28;20028;-56
2024/01/28 05:01:58;;;;;;;11.38;4.00;;;2.50;99.90;;;;;;5098228;28;20499;-54
2024/01/28 05:04:24;;;;;;;6.97;4.07;;;2.50;99.90;;;;;;5100977;28;20048;-45
2024/01/28 05:06:50;;;;;;;14.20;5.95;;;2.40;99.90;;;;;;5115040;28;20284;-40
2024/01/28 05:09:17;;;;;;;9.88;3.95;;;2.50;99.90;;;;;;5104166;28;20024;-41
2024/01/28 05:11:44;;;;;;;19.45;3.88;;;2.40;99.90;;;;;;5095597;28;20024;-43
2024/01/28 05:14:09;;;;;;;8.77;4.95;;;2.40;99.90;;;;;;5104605;28;20501;-46
2024/01/28 05:16:35;;;;;;;24.48;4.35;;;2.40;99.90;;;;;;5114449;28;20106;-41
2024/01/28 05:19:02;;;;;;;8.55;3.60;;;2.40;99.90;;;;;;5114610;28;20059;-40
2024/01/28 05:21:28;;;;;;;10.35;4.35;;;2.40;99.90;;;;;;5114260;28;20027;-40
2024/01/28 05:23:54;;;;;;;8.95;3.70;;;2.40;99.90;;;;;;5114654;28;20020;-40
2024/01/28 05:26:19;;;;;;;7.82;3.70;;;2.40;99.90;;;;;;5113005;28;20028;-45
2024/01/28 05:28:45;;;;;;;12.00;3.92;;;2.30;99.90;;;;;;5113570;28;20103;-42
2024/01/28 05:31:12;;;;;;;19.50;4.35;;;2.30;99.90;;;;;;5115342;28;20035;-56
2024/01/28 05:33:38;;;;;;;10.10;3.80;;;2.30;99.90;;;;;;5105793;28;20085;-51
2024/01/28 05:36:13;;;;;;;24.48;5.22;;;2.30;99.90;;;;;;5094818;28;20028;-44
2024/01/28 05:38:40;;;;;;;10.85;3.63;;;2.20;99.90;;;;;;5095160;28;20421;-41
2024/01/28 05:41:06;;;;;;;12.35;3.42;;;2.20;99.90;;;;;;5095258;28;20491;-40
2024/01/28 05:43:32;;;;;;;17.02;3.53;;;2.20;99.90;;;;;;5094570;28;20016;-40
2024/01/28 05:45:59;;;;;;;21.75;4.10;;;2.20;99.90;;;;;;5094918;28;20073;-40
2024/01/28 05:48:25;;;;;;;8.63;4.63;;;2.20;99.90;;;;;;5094697;28;20499;-39
2024/01/28 05:50:51;;;;;;;13.90;4.60;;;2.20;99.90;;;;;;5094607;28;20107;-40
2024/01/28 05:53:16;;;;;;;6.60;4.43;;;2.20;99.90;;;;;;5110629;28;20031;-41
2024/01/28 05:55:42;;;;;;;15.43;3.08;;;2.10;99.90;;;;;;5114707;28;20024;-42
2024/01/28 05:58:08;;;;;;;8.63;3.60;;;2.10;99.90;;;;;;5099864;28;20380;-43
2024/01/28 06:00:34;;;;;;;9.50;3.45;;;2.00;99.90;;;;;;5094390;28;20081;-42
2024/01/28 06:02:59;;;;;;;15.25;5.00;;;2.10;99.90;;;;;;5094239;28;20117;-56
2024/01/28 06:05:25;;;;;;;9.75;3.70;;;2.10;99.90;;;;;;5094370;28;20032;-56
2024/01/28 06:07:51;;;;;;;10.95;4.20;;;2.10;99.90;;;;;;5094457;28;20055;-56
2024/01/28 06:10:17;;;;;;;18.17;4.30;;;2.10;99.90;;;;;;5094871;28;20478;-57
2024/01/28 06:12:43;;;;;;;12.82;3.90;;;2.10;99.90;;;;;;5113841;28;20027;-58
2024/01/28 06:15:09;;;;;;;17.65;3.97;;;2.00;99.90;;;;;;5096122;28;20074;-58
2024/01/28 06:17:36;;;;;;;15.93;4.22;;;2.00;99.90;;;;;;5092775;28;20079;-67
2024/01/28 06:20:06;;;;;;;9.98;4.50;;;2.00;99.90;;;;;;5093956;28;20445;-55
2024/01/28 06:22:32;;;;;;;8.27;3.90;;;1.90;99.90;;;;;;5092625;28;20499;-56
2024/01/28 06:25:01;;;;;;;10.25;4.25;;;2.00;99.90;;;;;;5093974;28;20411;-58
2024/01/28 06:27:28;;;;;;;13.55;3.63;;;2.00;99.90;;;;;;5092568;28;20032;-56
2024/01/28 06:29:54;;;;;;;7.30;4.20;;;2.00;99.90;;;;;;5094392;28;20373;-57
2024/01/28 06:32:21;;;;;;;9.93;4.43;;;2.00;99.90;;;;;;5109317;28;20139;-75
2024/01/28 06:34:50;;;;;;;25.83;5.10;;;2.00;99.90;;;;;;5104665;28;20035;-57
2024/01/28 06:37:16;;;;;;;15.70;4.63;;;2.00;99.90;;;;;;5092494;28;20031;-56
2024/01/28 06:39:42;;;;;;;13.65;3.92;;;2.10;99.90;;;;;;5101662;28;20023;-57
2024/01/28 06:42:09;;;;;;;13.63;3.90;;;2.00;99.90;;;;;;5102259;28;20035;-57
2024/01/28 06:44:36;;;;;;;7.28;4.13;;;2.00;99.90;;;;;;5093627;28;20419;-55
2024/01/28 06:47:03;;;;;;;14.07;4.30;;;2.00;99.90;;;;;;5093602;28;20024;-56
2024/01/28 06:49:29;;;;;;;8.37;2.93;;;2.00;99.90;;;;;;5103487;28;20399;-59
2024/01/28 06:51:55;;;;;;;8.95;3.15;;;2.00;99.90;;;;;;5096036;28;20407;-55
2024/01/28 06:54:21;;;;;;;13.27;4.68;;;2.10;99.90;;;;;;5093706;28;20055;-57
2024/01/28 06:56:48;;;;;;;6.97;3.75;;;2.10;99.90;;;;;;5093258;28;20058;-54
2024/01/28 06:59:14;;;;;;;10.95;4.15;;;2.00;99.90;;;;;;5093666;28;20423;-57
2024/01/28 07:01:40;;;;;;;15.88;4.10;;;2.00;99.90;;;;;;5091987;28;20035;-57
2024/01/28 07:04:06;;;;;;;12.38;3.38;;;2.00;99.90;;;;;;5093234;28;20017;-58
2024/01/28 07:06:32;;;;;;;8.25;4.57;;;2.10;99.90;;;;;;5093666;28;20027;-57
2024/01/28 07:08:58;;;;;;;18.90;4.55;;;2.00;99.90;;;;;;5093223;28;20498;-58
2024/01/28 07:11:24;;;;;;;10.50;3.38;;;2.00;99.90;;;;;;5094014;28;20024;-57
2024/01/28 07:13:49;;;;;;;11.45;4.53;;;2.10;99.90;;;;;;5091789;28;20052;-56
2024/01/28 07:16:15;;;;;;;11.82;3.63;;;2.10;99.90;;;;;;5092851;28;20051;-57
2024/01/28 07:18:41;;;;;;;8.48;3.63;;;2.00;99.90;;;;;;5092831;28;20052;-56
2024/01/28 07:21:07;;;;;;;10.32;3.80;;;2.10;99.90;;;;;;5093183;28;20063;-56
2024/01/28 07:23:32;;;;;;;5.38;3.05;;;2.20;99.90;;;;;;5092748;28;20016;-57
2024/01/28 07:25:58;;;;;;;10.00;3.83;;;2.30;99.90;;;;;;5092935;28;20072;-57
2024/01/28 07:28:23;;;;;;;12.60;3.95;;;2.30;99.90;;;;;;5092853;28;20392;-56
2024/01/28 07:30:49;;;;;;;7.22;3.20;;;2.30;99.90;;;;;;5097188;28;20048;-64
2024/01/28 07:33:17;;;;;;;9.95;3.90;;;2.30;99.90;;;;;;5103169;28;20022;-57
2024/01/28 07:35:42;;;;;;;12.05;3.95;;;2.30;99.90;;;;;;5092846;28;20035;-62
2024/01/28 07:38:09;;;;;;;10.13;3.63;;;2.20;99.90;;;;;;5090986;28;20055;-56
2024/01/28 07:40:35;;;;;;;11.52;4.13;;;2.20;99.90;;;;;;5095637;28;20046;-57
2024/01/28 07:43:00;;;;;;;15.93;4.68;;;2.20;99.90;;;;;;5113404;28;20476;-47
2024/01/28 07:45:26;;;;;;;9.90;3.53;;;2.20;99.90;;;;;;5103302;28;20060;-42
2024/01/28 07:47:52;;;;;;;7.80;3.95;;;2.30;99.90;;;;;;5105866;28;20019;-42
2024/01/28 07:50:19;;;;;;;12.65;3.60;;;2.20;99.90;;;;;;5110259;28;20020;-45
2024/01/28 07:52:44;;;;;;;13.75;4.15;;;2.30;99.90;;;;;;5092754;28;20103;-41
2024/01/28 07:55:11;;;;;;;14.65;3.80;;;2.30;99.90;;;;;;5092758;28;20473;-42
2024/01/28 07:57:37;;;;;;;8.93;3.30;;;2.20;99.90;;;;;;5108676;28;20503;-42
2024/01/28 08:00:04;;;;;;;8.15;2.97;;;2.10;99.90;;;;;;5111317;28;20028;-46
2024/01/28 08:02:30;;;;;;;9.20;4.03;;;2.20;99.90;;;;;;5113223;28;20472;-41
2024/01/28 08:04:56;;;;;;;11.90;3.67;;;2.20;99.90;;;;;;5113000;28;20531;-40
2024/01/28 08:07:22;;;;;;;5.60;3.47;;;2.30;99.90;;;;;;5101373;28;20056;-41
2024/01/28 08:09:48;;;;;;;12.00;3.83;;;2.40;99.90;;;;;;5092327;28;20017;-42
2024/01/28 08:12:14;;;;;;;7.47;3.40;;;2.40;99.90;;;;;;5104132;28;20028;-43
2024/01/28 08:14:39;;;;;;;12.63;3.83;;;2.40;99.90;;;;;;5092973;28;20476;-41
2024/01/28 08:17:05;;;;;;;9.65;4.55;;;2.40;99.90;;;;;;5092333;28;20503;-41
2024/01/28 08:19:31;;;;;;;5.20;3.70;;;2.40;99.90;;;;;;5092565;28;20040;-42
2024/01/28 08:21:58;;;;;;;10.50;3.40;;;2.50;99.90;;;;;;5092369;28;20051;-56
2024/01/28 08:24:24;;;;;;;6.05;3.58;;;2.40;99.90;;;;;;5092568;28;20161;-57
2024/01/28 08:26:50;;;;;;;12.63;4.35;;;2.50;99.90;;;;;;5106557;28;20020;-57
2024/01/28 08:29:16;;;;;;;11.27;4.82;;;2.50;99.90;;;;;;5095079;28;20388;-62
2024/01/28 08:31:42;;;;;;;13.75;3.97;;;2.60;99.90;;;;;;5092994;28;20107;-57
2024/01/28 08:34:07;;;;;;;11.40;4.32;;;2.60;99.90;;;;;;5092575;28;20027;-57
2024/01/28 08:36:33;;;;;;;20.15;5.95;;;2.60;99.90;;;;;;5102044;28;20027;-56
2024/01/28 08:38:58;;;;;;;9.95;3.90;;;2.70;99.90;;;;;;5095995;28;20384;-57
2024/01/28 08:41:24;;;;;;;14.38;4.70;;;2.70;99.90;;;;;;5092055;28;20032;-56
2024/01/28 08:43:50;;;;;;;10.18;3.53;;;2.80;99.90;;;;;;5092222;28;20035;-57
2024/01/28 08:46:16;;;;;;;12.55;3.95;;;2.80;99.90;;;;;;5092070;28;20032;-57
2024/01/28 08:48:42;;;;;;;13.48;3.35;;;2.90;99.90;;;;;;5092841;28;20020;-57
2024/01/28 08:51:09;;;;;;;12.13;3.88;;;2.90;99.90;;;;;;5093967;28;20492;-57
2024/01/28 08:53:35;;;;;;;8.18;3.63;;;2.90;99.90;;;;;;5096040;28;20028;-56
2024/01/28 08:56:00;;;;;;;8.38;3.20;;;2.90;99.90;;;;;;5096709;28;20030;-56
2024/01/28 08:58:26;;;;;;;7.32;3.90;;;3.00;99.90;;;;;;5095621;28;20063;-57
2024/01/28 09:00:52;;;;;;;9.32;5.30;;;3.00;99.90;;;;;;5095761;28;20103;-56
2024/01/28 09:03:17;;;;;;;11.07;3.70;;;3.10;99.90;;;;;;5098125;28;20026;-53
2024/01/28 09:05:43;;;;;;;10.57;3.80;;;3.20;99.90;;;;;;5112547;28;20097;-57
2024/01/28 09:08:08;;;;;;;4.88;3.10;;;3.20;99.90;;;;;;5096359;28;20028;-54
2024/01/28 09:10:34;;;;;;;10.30;3.90;;;3.20;99.90;;;;;;5095185;28;20020;-57
2024/01/28 09:13:00;;;;;;;10.15;3.95;;;3.20;99.90;;;;;;5097980;28;20114;-57
2024/01/28 09:15:25;;;;;;;8.77;3.72;;;3.20;99.90;;;;;;5095130;28;20400;-57
2024/01/28 09:17:51;;;;;;;11.23;4.13;;;3.30;99.90;;;;;;5095183;28;20048;-57
2024/01/28 09:20:17;;;;;;;10.50;4.05;;;3.40;99.90;;;;;;5098814;28;20035;-57
2024/01/28 09:22:42;;;;;;;5.70;3.67;;;3.40;99.90;;;;;;5112990;28;20031;-59
2024/01/28 09:25:09;;;;;;;11.98;3.88;;;3.50;99.90;;;;;;5098464;28;20448;-68
2024/01/28 09:27:34;;;;;;;12.75;3.38;;;3.50;99.90;;;;;;5095182;28;20457;-55
2024/01/28 09:30:00;;;;;;;11.25;4.40;;;3.60;99.90;;;;;;5094877;28;20078;-56
2024/01/28 09:32:26;;;;;;;9.63;3.50;;;3.70;99.90;;;;;;5094991;28;20448;-57
2024/01/28 09:34:52;;;;;;;14.13;4.53;;;3.80;99.90;;;;;;5094968;28;20020;-57
2024/01/28 09:37:18;;;;;;;10.50;3.47;;;3.80;99.90;;;;;;5094903;28;20031;-56
2024/01/28 09:39:44;;;;;;;10.32;4.05;;;3.90;99.90;;;;;;5095477;28;20492;-56
2024/01/28 09:42:25;;;;;;;7.35;3.25;;;4.00;99.90;;;;;;5094686;28;20028;-57
2024/01/28 09:44:51;;;;;;;12.35;4.30;;;4.10;99.90;;;;;;5098488;28;20512;-57
2024/01/28 09:47:19;;;;;;;6.30;3.55;;;4.10;99.90;;;;;;5104458;28;20024;-56
2024/01/28 09:49:46;;;;;;;12.18;4.57;;;4.10;99.90;;;;;;5094590;28;20027;-56
2024/01/28 09:52:13;;;;;;;7.43;3.92;;;4.10;99.90;;;;;;5094558;28;20408;-56
2024/01/28 09:54:41;;;;;;;10.35;3.97;;;4.20;99.90;;;;;;5096200;28;20031;-58
2024/01/28 09:57:08;;;;;;;19.33;4.18;;;4.20;99.90;;;;;;5097751;28;20491;-56
2024/01/28 09:59:35;;;;;;;9.50;3.55;;;4.30;99.90;;;;;;5092884;28;20044;-56
2024/01/28 10:02:02;;;;;;;14.20;4.18;;;4.30;99.90;;;;;;5094057;28;20032;-58
2024/01/28 10:04:29;;;;;;;9.23;4.10;;;4.40;99.90;;;;;;5102554;28;20391;-56
2024/01/28 10:06:59;;;;;;;5.70;3.83;;;4.50;99.90;;;;;;5114645;28;20027;-54
2024/01/28 10:09:25;;;;;;;8.48;4.30;;;4.50;99.90;;;;;;5100997;27;20502;-56
2024/01/28 10:11:51;;;;;;;8.73;4.25;;;4.60;99.90;;;;;;5098459;28;20037;-54
2024/01/28 10:14:17;;;;;;;11.85;4.07;;;4.60;99.90;;;;;;5094158;28;20032;-56
2024/01/28 10:16:47;;;;;;;12.02;3.78;;;4.70;99.90;;;;;;5094175;28;20032;-57
2024/01/28 10:19:13;;;;;;;9.48;3.55;;;4.70;99.90;;;;;;5093933;28;20097;-56
2024/01/28 10:21:38;;;;;;;8.38;4.28;;;4.80;99.90;;;;;;5097612;28;20084;-57
2024/01/28 10:24:04;;;;;;;4.72;3.40;;;4.80;99.90;;;;;;5093968;28;20480;-56
2024/01/28 10:26:31;;;;;;;10.65;4.10;;;4.90;99.90;;;;;;5093817;28;20044;-57
2024/01/28 10:28:57;;;;;;;9.60;3.95;;;4.90;99.90;;;;;;5092791;28;20046;-56
2024/01/28 10:31:23;;;;;;;13.60;4.88;;;5.00;99.90;;;;;;5107123;28;20436;-56
2024/01/28 10:33:49;;;;;;;7.28;3.67;;;5.10;99.90;;;;;;5093561;28;20066;-53
2024/01/28 10:36:17;;;;;;;10.20;3.63;;;5.20;99.90;;;;;;5093577;28;20036;-40
2024/01/28 10:38:46;;;;;;;12.63;3.75;;;5.30;99.90;;;;;;5094743;28;20392;-43
2024/01/28 10:41:19;;;;;;;6.20;3.47;;;5.50;99.90;;;;;;5098665;28;20110;-44
2024/01/28 10:44:05;;;;;;;6.28;3.10;;;5.50;99.90;;;;;;5107485;28;20028;-43
2024/01/28 10:46:38;;;;;;;7.10;4.20;;;5.50;99.90;;;;;;5103697;28;20032;-69
2024/01/28 10:49:06;;;;;;;9.75;4.15;;;5.60;99.90;;;;;;5093654;28;20491;-46
2024/01/28 10:51:34;;;;;;;10.68;4.78;;;5.70;99.90;;;;;;5093574;28;20528;-49
2024/01/28 10:54:05;;;;;;;10.38;4.38;;;5.80;99.90;;;;;;5093189;28;20028;-44
2024/01/28 10:56:32;;;;;;;11.73;3.13;;;5.90;99.90;;;;;;5099179;28;20094;-41
2024/01/28 10:58:58;;;;;;;3.17;2.38;;;5.90;99.90;;;;;;5111190;28;20034;-44
2024/01/28 11:01:25;;;;;;;11.05;3.92;;;6.00;99.90;;;;;;5092948;28;20495;-40
2024/01/28 11:03:52;;;;;;;8.10;3.70;;;6.10;99.90;;;;;;5104484;28;20551;-41
2024/01/28 11:06:18;;;;;;;13.07;4.13;;;6.20;99.90;;;;;;5107864;28;20102;-43
2024/01/28 11:08:47;;;;;;;10.80;3.97;;;6.30;99.90;;;;;;5111082;28;20423;-47
2024/01/28 11:11:13;;;;;;;14.23;3.53;;;6.30;99.90;;;;;;5098378;28;20023;-68
2024/01/28 11:13:39;;;;;;;6.90;3.67;;;6.40;99.90;;;;;;5092280;28;20020;-44
2024/01/28 11:16:11;;;;;;;9.10;3.47;;;6.40;99.90;;;;;;5108384;28;20031;-48
2024/01/28 11:18:36;;;;;;;11.93;4.10;;;6.50;99.90;;;;;;5094385;28;20631;-43
2024/01/28 11:21:13;;;;;;;6.70;3.25;;;6.50;99.90;;;;;;5110731;28;20035;-41
2024/01/28 11:23:47;;;;;;;11.60;3.83;;;6.60;99.90;;;;;;5092945;28;20028;-42
2024/01/28 11:26:16;;;;;;;7.57;3.35;;;6.80;99.90;;;;;;5100770;28;20020;-42
2024/01/28 11:28:50;;;;;;;12.60;3.50;;;6.90;99.90;;;;;;5112989;28;20476;-41
2024/01/28 11:31:29;;;;;;;12.57;3.28;;;7.00;99.90;;;;;;5101064;28;20483;-44
2024/01/28 11:33:55;;;;;;;6.90;3.65;;;7.10;99.90;;;;;;5092821;28;20032;-40
2024/01/28 11:36:27;;;;;;;20.02;4.75;;;7.20;99.90;;;;;;5100851;28;20027;-46
2024/01/28 11:39:02;;;;;;;8.68;4.10;;;7.30;99.90;;;;;;5093128;28;20026;-43
2024/01/28 11:41:32;;;;;;;8.23;3.40;;;7.30;99.90;;;;;;5092719;28;20403;-42
2024/01/28 11:43:59;;;;;;;7.85;2.92;;;7.30;99.90;;;;;;5093010;28;20516;-41
2024/01/28 11:46:26;;;;;;;6.82;3.22;;;7.30;99.90;;;;;;5092736;28;20071;-41
2024/01/28 11:48:52;;;;;;;7.20;3.65;;;7.40;99.90;;;;;;5092741;28;20016;-40
2024/01/28 11:51:17;;;;;;;9.63;3.90;;;7.50;99.90;;;;;;5092601;28;20024;-42
2024/01/28 11:53:44;;;;;;;13.30;4.28;;;7.60;99.90;;;;;;5093601;28;20031;-41
2024/01/28 11:56:10;;;;;;;8.43;3.35;;;7.70;99.90;;;;;;5094764;28;20028;-43
2024/01/28 11:58:36;;;;;;;12.02;6.68;;;7.90;99.90;;;;;;5112896;28;20096;-40
2024/01/28 12:01:02;;;;;;;13.98;6.75;;;8.00;99.90;;;;;;5109471;28;20020;-40
2024/01/28 12:03:27;;;;;;;31.88;11.80;;;8.00;99.90;;;;;;5112656;28;20100;-40
2024/01/28 12:05:54;;;;;;;28.02;10.60;;;8.00;99.90;;;;;;5109537;28;20383;-41
2024/01/28 12:08:27;;;;;;;13.30;5.65;;;8.10;99.90;;;;;;5093639;28;20376;-40
2024/01/28 12:11:02;;;;;;;15.48;6.80;;;8.20;99.90;;;;;;5091957;28;20025;-41
2024/01/28 12:13:28;;;;;;;6.00;3.28;;;8.30;99.90;;;;;;5091664;28;20387;-41
2024/01/28 12:15:57;;;;;;;6.53;3.65;;;8.30;99.90;;;;;;5092530;28;20022;-44
2024/01/28 12:18:29;;;;;;;8.80;3.63;;;8.30;99.90;;;;;;5092109;28;20470;-42
2024/01/28 12:20:55;;;;;;;9.98;3.72;;;8.40;99.90;;;;;;5091384;28;20027;-44
2024/01/28 12:23:21;;;;;;;5.93;3.65;;;8.40;99.90;;;;;;5092687;28;20024;-42
2024/01/28 12:25:49;;;;;;;12.57;3.85;;;8.50;99.90;;;;;;5096322;28;20472;-43
2024/01/28 12:28:14;;;;;;;9.43;2.92;;;8.60;99.90;;;;;;5097921;28;20024;-44
2024/01/28 12:30:40;;;;;;;9.27;3.58;;;8.60;99.90;;;;;;5096152;28;20389;-41
2024/01/28 12:33:25;;;;;;;5.32;3.22;;;8.60;99.90;;;;;;5096228;28;20143;-41
2024/01/28 12:35:50;;;;;;;5.75;2.78;;;8.60;99.90;;;;;;5109745;28;20042;-44
2024/01/28 12:38:16;;;;;;;5.93;2.50;;;8.60;99.90;;;;;;5108724;28;20524;-43
2024/01/28 12:40:41;;;;;;;7.10;3.50;;;8.60;99.90;;;;;;5096187;28;20020;-41
2024/01/28 12:43:07;;;;;;;8.13;3.20;;;8.70;99.90;;;;;;5096199;28;20383;-42
2024/01/28 12:45:33;;;;;;;10.70;3.90;;;8.80;99.90;;;;;;5105050;28;20019;-42
2024/01/28 12:47:59;;;;;;;5.00;2.72;;;8.90;99.90;;;;;;5102853;28;20031;-43